KBJI Airport Information

Runway Information
Runway 07 Length 5699 ft width 150 ft
Elevation 1383 ft Threshold 700 ft Heading 74
Runway 25 Length 5699 ft Width 150 ft
Elevation 1380 ft Threshold 0 ft Heading 254
Runway 13 Length 6598 ft width 150 ft
Elevation 1390 ft Threshold 0 ft Heading 134
Runway 31 Length 6598 ft Width 150 ft
Elevation 1381 ft Threshold 0 ft Heading 314
Airport Frequencies
Type AWOS Name AWOS 3 Frequency 119.275 MHZ
Type CNTR Name MINNEAPOLI Frequency 134.75 MHZ
Type RDO Name PRINCETON Frequency 123.6 MHZ
Type UNIC Name CTAF/UNICO Frequency 122.8 MHZ
Airport Navaids
Airport Weather Information & NOTAM
ADDS - METARS form results

(1941 UTC 19 September 2020)
Data provider http://aviationweather.gov/metar/data/
 
METAR text: KBJI 191935Z AUTO 16007KT 10SM CLR 23/11 A3007 RMK AO2 T02250108
Conditions at: KBJI (BEMIDJI , MN, US) observed 1935 UTC 19 September 2020
Temperature: 22.5°C (72°F)
Dewpoint: 10.8°C (51°F) [RH = 48%]
Pressure (altimeter): 30.07 inches Hg (1018.4 mb)
Winds: from the SSE (160 degrees) at 8 MPH (7 knots; 3.6 m/s)
Visibility: 10 or more miles (16+ km)
Ceiling: at least 12,000 feet AGL
Clouds: sky clear below 12,000 feet AGL
Weather: automated observation with no human augmentation;
there may or may not be significant weather present at this time

METAR text: KBJI 191915Z AUTO 15007KT 10SM CLR 22/11 A3008 RMK AO2 T02230106
Conditions at: KBJI (BEMIDJI , MN, US) observed 1915 UTC 19 September 2020
Temperature: 22.3°C (72°F)
Dewpoint: 10.6°C (51°F) [RH = 47%]
Pressure (altimeter): 30.08 inches Hg (1018.7 mb)
Winds: from the SSE (150 degrees) at 8 MPH (7 knots; 3.6 m/s)
Visibility: 10 or more miles (16+ km)
Ceiling: at least 12,000 feet AGL
Clouds: sky clear below 12,000 feet AGL
Weather: automated observation with no human augmentation;
there may or may not be significant weather present at this time

METAR text: KBJI 191855Z AUTO 19005KT 10SM CLR 22/10 A3009 RMK AO2 T02190104
Conditions at: KBJI (BEMIDJI , MN, US) observed 1855 UTC 19 September 2020
Temperature: 21.9°C (71°F)
Dewpoint: 10.4°C (51°F) [RH = 48%]
Pressure (altimeter): 30.09 inches Hg (1019.0 mb)
Winds: from the S (190 degrees) at 6 MPH (5 knots; 2.6 m/s)
Visibility: 10 or more miles (16+ km)
Ceiling: at least 12,000 feet AGL
Clouds: sky clear below 12,000 feet AGL
Weather: automated observation with no human augmentation;
there may or may not be significant weather present at this time

Forecast for: KBJI (BEMIDJI , MN, US)
Text: KBJI 191720Z 1918/2018 20007KT P6SM FEW200
Forecast period: 1800 UTC 19 September 2020 to 0000 UTC 20 September 2020
Forecast type: FROM: standard forecast or significant change
Winds: from the SSW (200 degrees) at 8 MPH (7 knots; 3.6 m/s)
Visibility: 6 or more miles (10+ km)
Ceiling: at least 12,000 feet AGL
Clouds: few clouds at 20000 feet AGL
Weather: no significant weather forecast for this period
Text: FM200000 15010KT P6SM SCT200
Forecast period: 0000 to 1600 UTC 20 September 2020
Forecast type: FROM: standard forecast or significant change
Winds: from the SSE (150 degrees) at 12 MPH (10 knots; 5.1 m/s)
Visibility: 6 or more miles (10+ km)
Ceiling: at least 12,000 feet AGL
Clouds: scattered clouds at 20000 feet AGL
Weather: no significant weather forecast for this period
Text: FM201600 16015G23KT P6SM BKN200
Forecast period: 1600 to 1800 UTC 20 September 2020
Forecast type: FROM: standard forecast or significant change
Winds: from the SSE (160 degrees) at 17 MPH (15 knots; 7.7 m/s)
gusting to 26 MPH (23 knots; 11.8 m/s)
Visibility: 6 or more miles (10+ km)
Ceiling: 20000 feet AGL
Clouds: broken clouds at 20000 feet AGL
Weather: no significant weather forecast for this period